createdAt,value
2022-08-07T00:00:03.439Z,72.11
2022-08-07T00:01:44.439Z,72.72
2022-08-07T00:02:37.060Z,72.55
2022-08-07T00:03:03.279Z,73.36
2022-08-07T00:04:03.389Z,72.45
2022-08-07T00:05:04.217Z,72.75
2022-08-07T00:06:02.231Z,72.65
2022-08-07T00:07:05.107Z,72.96
2022-08-07T00:08:03.209Z,72.62
2022-08-07T00:09:16.816Z,72.92
2022-08-07T00:10:25.498Z,74.18
2022-08-07T00:11:06.389Z,74.18
2022-08-07T00:12:02.179Z,73.97
2022-08-07T00:13:03.161Z,74.38
2022-08-07T00:14:02.154Z,74.42
2022-08-07T00:15:02.404Z,74.62
2022-08-07T00:16:02.140Z,74.73
2022-08-07T00:17:02.627Z,75.07
2022-08-07T00:18:02.114Z,75.48
2022-08-07T00:19:02.105Z,75.37
2022-08-07T00:20:03.258Z,74.86
2022-08-07T00:21:03.473Z,75.44
2022-08-07T00:22:03.319Z,74.52
2022-08-07T00:23:02.045Z,74.45
2022-08-07T00:24:02.095Z,74.96
2022-08-07T00:25:02.754Z,74.62
2022-08-07T00:26:13.277Z,75.03
2022-08-07T00:27:07.477Z,74.93
2022-08-07T00:28:03.017Z,75.13
2022-08-07T00:29:02.012Z,74.55
2022-08-07T00:30:02.011Z,75.16
2022-08-07T00:31:01.984Z,75.37
2022-08-07T00:32:01.976Z,75.37
2022-08-07T00:33:33.909Z,75.71
2022-08-07T00:34:01.958Z,76.53
2022-08-07T00:35:01.941Z,76.43
2022-08-07T00:36:01.950Z,76.22
2022-08-07T00:37:01.950Z,76.73
2022-08-07T00:38:01.917Z,76.73
2022-08-07T00:39:01.960Z,76.73
2022-08-07T00:40:01.908Z,76.53
2022-08-07T00:41:01.893Z,76.53
2022-08-07T00:42:05.054Z,76.56
2022-08-07T00:43:01.875Z,76.97
2022-08-07T00:44:02.997Z,76.73
2022-08-07T00:45:02.845Z,78.30
2022-08-07T00:46:02.241Z,78.23
2022-08-07T00:47:01.837Z,78.23
2022-08-07T00:48:07.636Z,78.44
2022-08-07T00:49:02.083Z,78.23
2022-08-07T00:50:20.775Z,78.44
2022-08-07T00:51:02.990Z,78.34
2022-08-07T00:52:01.823Z,78.85
2022-08-07T00:53:01.791Z,78.68
2022-08-07T00:54:01.747Z,77.93
2022-08-07T00:55:04.646Z,78.64
2022-08-07T00:56:03.935Z,78.44
2022-08-07T00:57:01.818Z,78.13
2022-08-07T00:58:01.714Z,78.23
2022-08-07T00:59:02.720Z,78.54
2022-08-07T01:00:01.701Z,78.38
2022-08-07T01:01:01.755Z,78.64
2022-08-07T01:02:01.742Z,78.38
2022-08-07T01:03:01.691Z,78.07
2022-08-07T01:04:01.644Z,78.44
2022-08-07T01:05:01.661Z,78.03
2022-08-07T01:06:01.640Z,78.03
2022-08-07T01:07:01.622Z,78.23
2022-08-07T01:08:01.645Z,78.54
2022-08-07T01:09:01.637Z,78.54
2022-08-07T01:10:05.936Z,78.44
2022-08-07T01:12:04.775Z,78.78
2022-08-07T01:12:10.079Z,78.44
2022-08-07T01:13:02.763Z,78.03
2022-08-07T01:14:01.579Z,78.58
2022-08-07T01:15:03.887Z,78.03
2022-08-07T01:16:05.900Z,78.34
2022-08-07T01:17:04.252Z,78.44
2022-08-07T01:18:01.533Z,78.03
2022-08-07T01:19:01.548Z,77.62
2022-08-07T01:20:01.521Z,77.72
2022-08-07T01:21:01.498Z,76.90
2022-08-07T01:22:03.205Z,76.90
2022-08-07T01:23:12.028Z,77.52
2022-08-07T01:24:01.497Z,77.62
2022-08-07T01:25:02.412Z,76.81
2022-08-07T01:26:03.445Z,77.42
2022-08-07T01:27:01.473Z,77.11
2022-08-07T01:28:01.443Z,77.01
2022-08-07T01:29:01.423Z,77.42
2022-08-07T01:30:01.421Z,76.81
2022-08-07T01:31:01.403Z,77.22
2022-08-07T01:32:01.418Z,76.60
2022-08-07T01:33:02.201Z,77.22
2022-08-07T01:34:01.411Z,76.60
2022-08-07T01:35:01.380Z,77.22
2022-08-07T01:36:06.053Z,77.11
2022-08-07T01:37:01.355Z,78.03
2022-08-07T01:38:01.340Z,77.66
2022-08-07T01:39:01.397Z,78.27
2022-08-07T01:40:01.352Z,78.58
2022-08-07T01:41:01.299Z,78.58
2022-08-07T01:42:36.618Z,78.48
2022-08-07T01:43:03.354Z,78.17
2022-08-07T01:44:01.686Z,78.78
2022-08-07T01:45:01.286Z,78.64
2022-08-07T01:46:01.251Z,78.38
2022-08-07T01:48:16.411Z,78.58
2022-08-07T01:48:21.064Z,78.44
2022-08-07T01:49:02.451Z,78.38
2022-08-07T01:50:01.238Z,78.48
2022-08-07T01:51:24.418Z,78.58
2022-08-07T01:52:04.886Z,78.68
2022-08-07T01:53:01.181Z,78.78
2022-08-07T01:54:12.706Z,78.78
2022-08-07T01:55:02.166Z,78.78
2022-08-07T01:56:01.166Z,79.29
2022-08-07T01:57:02.149Z,79.50
2022-08-07T01:58:06.718Z,78.68
2022-08-07T01:59:02.148Z,78.72
2022-08-07T02:00:01.125Z,79.23
2022-08-07T02:01:25.708Z,80.05
2022-08-07T02:02:04.378Z,79.64
2022-08-07T02:03:19.249Z,79.84
2022-08-07T02:04:02.159Z,79.68
2022-08-07T02:05:01.057Z,80.49
2022-08-07T02:06:02.077Z,80.69
2022-08-07T02:07:01.050Z,80.08
2022-08-07T02:08:01.097Z,79.74
2022-08-07T02:09:01.034Z,80.35
2022-08-07T02:10:01.021Z,79.57
2022-08-07T02:11:01.011Z,79.47
2022-08-07T02:12:04.825Z,80.05
2022-08-07T02:13:01.128Z,79.94
2022-08-07T02:14:02.639Z,80.15
2022-08-07T02:15:01.072Z,79.74
2022-08-07T02:16:00.967Z,80.08
2022-08-07T02:17:00.950Z,79.78
2022-08-07T02:18:00.939Z,80.08
2022-08-07T02:19:00.958Z,79.78
2022-08-07T02:20:05.551Z,80.19
2022-08-07T02:21:06.465Z,79.88
2022-08-07T02:22:00.912Z,79.88
2022-08-07T02:23:00.917Z,80.35
2022-08-07T02:24:01.610Z,80.19
2022-08-07T02:25:00.879Z,79.78
2022-08-07T02:26:30.460Z,80.08
2022-08-07T02:27:02.700Z,79.98
2022-08-07T02:28:00.851Z,80.80
2022-08-07T02:29:00.846Z,81.31
2022-08-07T02:30:03.989Z,81.10
2022-08-07T02:31:27.963Z,80.83
2022-08-07T02:32:01.814Z,81.04
2022-08-07T02:33:09.553Z,80.90
2022-08-07T02:34:03.462Z,80.83
2022-08-07T02:35:01.131Z,81.15
2022-08-07T02:36:30.568Z,81.41
2022-08-07T02:37:01.770Z,80.49
2022-08-07T02:38:01.753Z,80.49
2022-08-07T02:39:00.806Z,80.69
2022-08-07T02:40:02.136Z,79.74
2022-08-07T02:41:01.770Z,80.15
2022-08-07T02:42:00.731Z,80.15
2022-08-07T02:43:00.698Z,79.94
2022-08-07T02:44:00.680Z,79.78
2022-08-07T02:45:00.678Z,79.74
2022-08-07T02:46:02.752Z,79.84
2022-08-07T02:47:00.857Z,79.78
2022-08-07T02:48:01.644Z,80.15
2022-08-07T02:49:03.192Z,79.68
2022-08-07T02:50:00.676Z,80.08
2022-08-07T02:51:00.632Z,80.39
2022-08-07T02:52:00.634Z,80.29
2022-08-07T02:53:00.822Z,80.19
2022-08-07T02:54:00.585Z,80.69
2022-08-07T02:55:00.577Z,80.94
2022-08-07T02:56:04.195Z,81.24
2022-08-07T02:57:00.571Z,81.35
2022-08-07T02:58:00.545Z,81.41
2022-08-07T02:59:00.544Z,81.35
2022-08-07T03:00:01.206Z,82.00
2022-08-07T03:01:00.587Z,82.82
2022-08-07T03:02:01.343Z,83.03
2022-08-07T03:03:00.529Z,82.62
2022-08-07T03:04:03.214Z,82.82
2022-08-07T03:05:04.900Z,82.31
2022-08-07T03:06:00.472Z,82.51
2022-08-07T03:07:03.426Z,82.57
2022-08-07T03:08:08.151Z,82.41
2022-08-07T03:09:01.473Z,82.41
2022-08-07T03:10:00.435Z,82.31
2022-08-07T03:11:00.423Z,82.07
2022-08-07T03:12:02.906Z,81.76
2022-08-07T03:13:00.402Z,81.65
2022-08-07T03:14:01.912Z,81.15
2022-08-07T03:15:02.395Z,81.45
2022-08-07T03:16:01.373Z,81.45
2022-08-07T03:17:00.365Z,81.35
2022-08-07T03:18:00.357Z,81.29
2022-08-07T03:19:00.349Z,80.98
2022-08-07T03:20:00.346Z,81.29
2022-08-07T03:21:00.322Z,81.29
2022-08-07T03:22:00.317Z,81.38
2022-08-07T03:23:00.307Z,82.14
2022-08-07T03:24:20.298Z,82.65
2022-08-07T03:25:02.331Z,82.35
2022-08-07T03:26:00.275Z,83.00
2022-08-07T03:27:00.277Z,82.76
2022-08-07T03:28:09.462Z,82.55
2022-08-07T03:29:01.245Z,82.76
2022-08-07T03:30:00.254Z,83.06
2022-08-07T03:31:00.227Z,82.86
2022-08-07T03:32:00.239Z,83.06
2022-08-07T03:33:01.019Z,82.24
2022-08-07T03:34:00.190Z,82.65
2022-08-07T03:35:16.918Z,83.00
2022-08-07T03:36:01.178Z,82.86
2022-08-07T03:37:00.190Z,83.00
2022-08-07T03:38:01.179Z,82.28
2022-08-07T03:39:05.602Z,83.17
2022-08-07T03:40:15.127Z,82.86
2022-08-07T03:41:02.180Z,82.35
2022-08-07T03:42:00.703Z,82.10
2022-08-07T03:43:00.114Z,81.49
2022-08-07T03:44:00.096Z,81.59
2022-08-07T03:45:00.089Z,81.38
2022-08-07T03:46:00.098Z,81.43
2022-08-07T03:47:13.821Z,81.63
2022-08-07T03:48:00.087Z,81.79
2022-08-07T03:49:02.753Z,81.38
2022-08-07T03:50:00.048Z,81.84
2022-08-07T03:51:00.039Z,81.59
2022-08-07T03:52:01.225Z,81.38
2022-08-07T03:53:00.024Z,81.08
2022-08-07T03:54:33.925Z,81.18
2022-08-07T03:55:06.868Z,81.22
2022-08-07T03:56:04.307Z,82.14
2022-08-07T03:57:07.220Z,82.00
2022-08-07T03:59:05.551Z,82.55
2022-08-07T03:59:09.785Z,82.86
2022-08-07T04:00:01.760Z,82.86
2022-08-07T04:01:00.518Z,82.62
2022-08-07T04:01:59.987Z,82.86
2022-08-07T04:02:59.909Z,83.06
2022-08-07T04:03:59.904Z,82.65
2022-08-07T04:04:59.899Z,82.76
2022-08-07T04:05:59.979Z,82.51
2022-08-07T04:07:00.089Z,82.00
2022-08-07T04:07:59.858Z,82.31
2022-08-07T04:08:59.868Z,82.10
2022-08-07T04:09:59.835Z,81.86
2022-08-07T04:12:20.892Z,81.70
2022-08-07T04:12:26.860Z,82.00
2022-08-07T04:13:00.806Z,81.59
2022-08-07T04:14:10.207Z,81.38
2022-08-07T04:15:00.784Z,81.49
2022-08-07T04:15:59.859Z,81.59
2022-08-07T04:16:59.768Z,81.90
2022-08-07T04:18:58.578Z,82.10
2022-08-07T04:19:03.832Z,81.79
2022-08-07T04:20:01.218Z,81.49
2022-08-07T04:20:59.742Z,81.18
2022-08-07T04:22:08.681Z,81.79
2022-08-07T04:23:01.806Z,81.45
2022-08-07T04:24:07.358Z,80.56
2022-08-07T04:25:00.997Z,77.86
2022-08-07T04:25:59.686Z,75.06
2022-08-07T04:26:59.684Z,71.53
2022-08-07T04:28:01.013Z,68.89
2022-08-07T04:28:59.654Z,67.27
2022-08-07T04:30:02.028Z,64.88
2022-08-07T04:30:59.644Z,62.86
2022-08-07T04:32:03.202Z,61.69
2022-08-07T04:32:59.636Z,60.12
2022-08-07T04:33:59.609Z,57.84
2022-08-07T04:34:59.601Z,57.41
2022-08-07T04:35:59.587Z,56.55
2022-08-07T04:36:59.591Z,54.68
2022-08-07T04:38:03.697Z,53.88
2022-08-07T04:38:59.633Z,54.10
2022-08-07T04:39:59.571Z,54.48
2022-08-07T04:40:59.549Z,53.85
2022-08-07T04:41:59.571Z,53.14
2022-08-07T04:43:02.159Z,53.42
2022-08-07T04:44:12.689Z,52.69
2022-08-07T04:45:03.313Z,52.06
2022-08-07T04:46:02.023Z,52.06
2022-08-07T04:47:04.967Z,51.54
2022-08-07T04:48:04.832Z,50.79
2022-08-07T04:49:01.611Z,49.56
2022-08-07T04:50:04.549Z,48.86
2022-08-07T04:51:00.467Z,48.73
2022-08-07T04:52:00.050Z,48.31
2022-08-07T04:52:59.425Z,48.19
2022-08-07T04:54:05.207Z,47.69
2022-08-07T04:55:00.414Z,47.88
2022-08-07T04:58:11.259Z,49.18
2022-08-07T04:58:12.791Z,47.73
2022-08-07T04:58:14.864Z,48.46
2022-08-07T05:00:08.941Z,49.71
2022-08-07T05:00:12.396Z,49.58
2022-08-07T05:00:59.426Z,49.18
2022-08-07T05:01:59.367Z,49.36
2022-08-07T05:02:59.335Z,48.86
2022-08-07T05:04:06.421Z,48.01
2022-08-07T05:04:59.321Z,47.88
2022-08-07T05:05:59.306Z,46.74
2022-08-07T05:06:59.307Z,46.76
2022-08-07T05:07:59.290Z,46.62
2022-08-07T05:09:01.918Z,45.84
2022-08-07T05:09:59.266Z,45.42
2022-08-07T05:11:02.552Z,45.21
2022-08-07T05:12:02.609Z,44.97
2022-08-07T05:13:09.871Z,44.57
2022-08-07T05:14:55.988Z,44.75
2022-08-07T05:15:03.463Z,43.95
2022-08-07T05:15:59.215Z,44.25
2022-08-07T05:17:00.200Z,44.59
2022-08-07T05:18:00.648Z,45.81
2022-08-07T05:18:59.177Z,46.94
2022-08-07T05:19:59.198Z,46.74
2022-08-07T05:20:59.161Z,46.96
2022-08-07T05:22:01.783Z,47.16
2022-08-07T05:22:59.156Z,46.74
2022-08-07T05:23:59.146Z,45.92
2022-08-07T05:24:59.556Z,44.95
2022-08-07T05:26:15.614Z,44.45
2022-08-07T05:27:00.125Z,43.43
2022-08-07T05:28:02.554Z,43.93
2022-08-07T05:29:00.088Z,43.63
2022-08-07T05:29:59.081Z,43.61
2022-08-07T05:30:59.092Z,44.23
2022-08-07T05:31:59.067Z,43.41
2022-08-07T05:32:59.060Z,42.89
2022-08-07T05:34:04.431Z,42.65
2022-08-07T05:35:00.033Z,42.05
2022-08-07T05:35:59.033Z,41.93
2022-08-07T05:36:59.018Z,42.05
2022-08-07T05:38:08.581Z,41.33
2022-08-07T05:40:05.237Z,41.93
2022-08-07T05:40:14.282Z,41.91
2022-08-07T05:41:00.022Z,41.63
2022-08-07T05:42:01.803Z,41.93
2022-08-07T05:42:58.970Z,43.19
2022-08-07T05:44:12.518Z,42.40
2022-08-07T05:45:14.179Z,42.79
2022-08-07T05:45:59.949Z,43.01
2022-08-07T05:47:00.194Z,43.89
2022-08-07T05:48:01.346Z,43.03
2022-08-07T05:48:59.559Z,43.41
2022-08-07T05:49:58.919Z,43.09
2022-08-07T05:50:58.933Z,42.61
2022-08-07T05:51:58.880Z,42.81
2022-08-07T05:52:58.914Z,42.57
2022-08-07T05:54:13.734Z,42.27
2022-08-07T05:55:06.771Z,42.05
2022-08-07T05:56:02.243Z,42.15
2022-08-07T05:56:58.951Z,41.47
2022-08-07T05:57:58.853Z,41.83
2022-08-07T05:58:58.889Z,41.96
2022-08-07T05:59:58.829Z,41.63
2022-08-07T06:00:58.803Z,41.71
2022-08-07T06:01:59.943Z,40.48
2022-08-07T06:02:58.865Z,40.16
2022-08-07T06:04:01.050Z,39.86
2022-08-07T06:04:58.777Z,40.06
2022-08-07T06:05:58.836Z,39.84
2022-08-07T06:07:03.617Z,39.61
2022-08-07T06:08:14.683Z,38.22
2022-08-07T06:08:59.759Z,38.52
2022-08-07T06:10:05.526Z,39.63
2022-08-07T06:11:03.738Z,39.01
2022-08-07T06:11:59.585Z,39.51
2022-08-07T06:12:58.800Z,39.51
2022-08-07T06:14:13.095Z,39.53
2022-08-07T06:15:05.667Z,39.43
2022-08-07T06:15:59.735Z,40.05
2022-08-07T06:16:58.719Z,39.23
2022-08-07T06:17:59.644Z,39.01
2022-08-07T06:18:58.665Z,38.60
2022-08-07T06:20:04.020Z,39.59
2022-08-07T06:22:14.460Z,39.00
2022-08-07T06:22:15.158Z,38.78
2022-08-07T06:23:24.940Z,39.41
2022-08-07T06:24:46.346Z,39.54
2022-08-07T06:25:01.531Z,39.41
2022-08-07T06:25:58.641Z,39.87
2022-08-07T06:26:58.630Z,39.71
2022-08-07T06:28:01.936Z,38.60
2022-08-07T06:28:58.965Z,38.66
2022-08-07T06:29:58.545Z,38.68
2022-08-07T06:30:58.675Z,39.23
2022-08-07T06:31:58.534Z,38.76
2022-08-07T06:32:58.518Z,38.62
2022-08-07T06:34:30.592Z,38.24
2022-08-07T06:34:58.508Z,38.62
2022-08-07T06:36:06.485Z,38.76
2022-08-07T06:36:59.496Z,39.15
2022-08-07T06:37:58.487Z,39.07
2022-08-07T06:40:13.398Z,38.26
2022-08-07T06:40:17.882Z,38.84
2022-08-07T06:40:59.489Z,39.28
2022-08-07T06:42:02.839Z,38.66
2022-08-07T06:42:58.437Z,39.57
2022-08-07T06:44:01.266Z,39.83
2022-08-07T06:44:58.424Z,38.66
2022-08-07T06:46:00.992Z,39.45
2022-08-07T06:47:09.818Z,38.96
2022-08-07T06:47:59.883Z,38.85
2022-08-07T06:48:58.405Z,39.47
2022-08-07T06:49:59.044Z,38.56
2022-08-07T06:50:58.367Z,38.26
2022-08-07T06:52:02.874Z,38.88
2022-08-07T06:52:59.364Z,39.37
2022-08-07T06:55:28.553Z,39.29
2022-08-07T06:55:33.325Z,40.20
2022-08-07T06:56:01.291Z,40.09
2022-08-07T06:56:58.348Z,38.78
2022-08-07T06:57:59.256Z,38.24
2022-08-07T07:00:13.649Z,38.85
2022-08-07T07:00:17.473Z,39.63
2022-08-07T07:00:59.304Z,38.54
2022-08-07T07:01:58.445Z,38.74
2022-08-07T07:03:00.788Z,38.54
2022-08-07T07:04:28.376Z,38.34
2022-08-07T07:05:00.253Z,38.84
2022-08-07T07:06:05.199Z,38.53
2022-08-07T07:07:00.972Z,37.81
2022-08-07T07:07:59.124Z,37.62
2022-08-07T07:09:00.225Z,37.38
2022-08-07T07:09:58.239Z,36.79
2022-08-07T07:10:59.047Z,36.77
2022-08-07T07:12:08.217Z,36.49
2022-08-07T07:12:59.193Z,37.22
2022-08-07T07:14:02.216Z,37.51
2022-08-07T07:14:58.191Z,38.53
2022-08-07T07:15:58.159Z,38.62
2022-08-07T07:16:58.157Z,38.54
2022-08-07T07:17:58.195Z,38.72
2022-08-07T07:18:58.154Z,38.54
2022-08-07T07:19:59.145Z,38.74
2022-08-07T07:20:59.110Z,38.68
2022-08-07T07:22:12.010Z,38.79
2022-08-07T07:24:10.936Z,39.65
2022-08-07T07:24:11.128Z,38.46
2022-08-07T07:25:03.088Z,38.26
2022-08-07T07:26:32.592Z,38.78
2022-08-07T07:26:59.058Z,39.69
2022-08-07T07:28:02.791Z,39.25
2022-08-07T07:29:38.425Z,39.28
2022-08-07T07:30:08.941Z,39.37
2022-08-07T07:30:59.015Z,39.36
2022-08-07T07:31:58.033Z,39.67
2022-08-07T07:32:58.029Z,38.46
2022-08-07T07:33:58.060Z,38.98
2022-08-07T07:34:58.008Z,38.54
2022-08-07T07:36:12.627Z,38.74
2022-08-07T07:37:05.451Z,38.54
2022-08-07T07:38:02.710Z,38.13
2022-08-07T07:38:59.022Z,37.43
2022-08-07T07:39:57.997Z,37.02
2022-08-07T07:41:01.886Z,37.10
2022-08-07T07:42:09.020Z,35.50
2022-08-07T07:43:11.606Z,36.95
2022-08-07T07:44:17.258Z,34.99
2022-08-07T07:44:58.924Z,34.31
2022-08-07T07:46:40.314Z,35.70
2022-08-07T07:47:12.080Z,35.91
2022-08-07T07:47:59.897Z,35.52
2022-08-07T07:49:00.237Z,36.19
2022-08-07T07:50:35.015Z,35.30
2022-08-07T07:50:58.885Z,35.28
2022-08-07T07:51:59.768Z,34.08
2022-08-07T07:52:57.825Z,35.76
2022-08-07T07:53:57.817Z,34.44
2022-08-07T07:54:57.804Z,34.06
2022-08-07T07:56:00.863Z,34.22
2022-08-07T07:56:57.793Z,35.52
2022-08-07T07:57:58.813Z,34.51
2022-08-07T07:58:57.769Z,35.89
2022-08-07T07:59:57.776Z,36.21
2022-08-07T08:00:57.780Z,37.16
2022-08-07T08:02:04.097Z,35.76
2022-08-07T08:03:04.827Z,34.17
2022-08-07T08:04:05.827Z,34.27
2022-08-07T08:04:59.163Z,33.85
2022-08-07T08:05:57.705Z,33.47
2022-08-07T08:07:00.661Z,33.77
2022-08-07T08:08:00.848Z,33.74
2022-08-07T08:08:57.677Z,33.56
2022-08-07T08:10:04.919Z,33.77
2022-08-07T08:10:57.660Z,34.94
2022-08-07T08:12:02.506Z,33.74
2022-08-07T08:12:59.718Z,33.34
2022-08-07T08:13:57.679Z,33.15
2022-08-07T08:14:57.629Z,32.45
2022-08-07T08:16:00.730Z,33.51
2022-08-07T08:16:57.630Z,32.23
2022-08-07T08:17:58.847Z,33.59
2022-08-07T08:19:00.309Z,33.51
2022-08-07T08:20:18.887Z,33.98
2022-08-07T08:20:58.560Z,34.39
2022-08-07T08:22:03.373Z,34.12
2022-08-07T08:22:58.556Z,33.77
2022-08-07T08:23:57.576Z,33.77
2022-08-07T08:25:18.630Z,33.85
2022-08-07T08:26:03.369Z,34.15
2022-08-07T08:26:58.520Z,33.85
2022-08-07T08:28:03.567Z,32.65
2022-08-07T08:28:58.518Z,32.37
2022-08-07T08:29:57.485Z,32.77
2022-08-07T08:30:57.514Z,33.69
2022-08-07T08:31:58.573Z,34.10
2022-08-07T08:32:58.454Z,34.12
2022-08-07T08:33:57.915Z,34.61
2022-08-07T08:34:58.413Z,34.69
2022-08-07T08:35:57.459Z,33.61
2022-08-07T08:36:57.978Z,34.41
2022-08-07T08:38:01.542Z,34.81
2022-08-07T08:38:57.415Z,34.51
2022-08-07T08:39:58.736Z,34.39
2022-08-07T08:40:57.415Z,33.89
2022-08-07T08:41:59.517Z,33.36
2022-08-07T08:42:57.369Z,33.74
2022-08-07T08:43:59.108Z,33.75
2022-08-07T08:44:57.400Z,34.13
2022-08-07T08:46:00.868Z,34.01
2022-08-07T08:46:57.405Z,32.04
2022-08-07T08:47:57.484Z,32.44
2022-08-07T08:48:57.381Z,32.45
2022-08-07T08:50:05.008Z,32.65
2022-08-07T08:50:58.331Z,33.04
2022-08-07T08:52:14.480Z,33.28
2022-08-07T08:52:58.285Z,33.59
2022-08-07T08:53:57.339Z,35.27
2022-08-07T08:54:57.325Z,32.70
2022-08-07T08:55:59.229Z,31.98
2022-08-07T08:56:57.350Z,33.42
2022-08-07T08:57:58.267Z,32.04
2022-08-07T08:58:58.230Z,33.15
2022-08-07T08:59:57.435Z,32.92
2022-08-07T09:00:57.253Z,31.85
2022-08-07T09:01:58.437Z,31.50
2022-08-07T09:02:57.644Z,32.67
2022-08-07T09:03:58.225Z,32.19
2022-08-07T09:04:57.168Z,32.39
2022-08-07T09:05:57.188Z,32.37
2022-08-07T09:06:57.158Z,32.37
2022-08-07T09:07:57.617Z,32.56
2022-08-07T09:08:57.168Z,31.17
2022-08-07T09:09:57.441Z,33.25
2022-08-07T09:10:57.119Z,31.27
2022-08-07T09:12:02.809Z,31.95
2022-08-07T09:12:59.102Z,30.86
2022-08-07T09:13:57.091Z,31.17
2022-08-07T09:14:58.757Z,31.07
2022-08-07T09:16:21.764Z,30.27
2022-08-07T09:16:58.066Z,30.66
2022-08-07T09:18:01.436Z,30.60
2022-08-07T09:18:58.393Z,30.89
2022-08-07T09:19:57.049Z,30.30
2022-08-07T09:20:58.324Z,30.99
2022-08-07T09:22:09.682Z,30.69
2022-08-07T09:24:32.504Z,32.57
2022-08-07T09:24:33.846Z,31.38
2022-08-07T09:25:01.527Z,30.50
2022-08-07T09:25:58.056Z,32.35
2022-08-07T09:26:57.191Z,32.26
2022-08-07T09:28:00.028Z,31.37
2022-08-07T09:30:00.841Z,31.27
2022-08-07T09:30:05.360Z,31.90
2022-08-07T09:30:57.968Z,30.82
2022-08-07T09:31:56.934Z,30.73
2022-08-07T09:32:56.985Z,30.61
2022-08-07T09:33:58.226Z,30.10
2022-08-07T09:34:56.915Z,28.61
2022-08-07T09:36:03.403Z,29.20
2022-08-07T09:36:57.889Z,30.38
2022-08-07T09:37:56.890Z,30.47
2022-08-07T09:38:56.860Z,30.06
2022-08-07T09:39:57.911Z,29.28
2022-08-07T09:40:56.840Z,29.58
2022-08-07T09:41:59.146Z,30.48
2022-08-07T09:42:57.827Z,29.92
2022-08-07T09:44:06.287Z,30.64
2022-08-07T09:47:20.399Z,30.85
2022-08-07T09:47:24.875Z,31.54
2022-08-07T09:47:52.258Z,32.40
2022-08-07T09:48:02.812Z,30.21
2022-08-07T09:50:01.623Z,30.61
2022-08-07T09:50:18.861Z,30.71
2022-08-07T09:50:56.753Z,30.79
2022-08-07T09:52:10.428Z,31.48
2022-08-07T09:52:57.726Z,30.69
2022-08-07T09:54:00.596Z,30.58
2022-08-07T09:54:57.773Z,29.91
2022-08-07T09:56:04.409Z,31.20
2022-08-07T09:56:57.684Z,30.82
2022-08-07T09:57:56.688Z,30.15
2022-08-07T09:58:56.684Z,30.67
2022-08-07T10:00:00.613Z,31.49
2022-08-07T10:00:56.714Z,32.58
2022-08-07T10:01:56.644Z,31.57
2022-08-07T10:02:56.643Z,31.26
2022-08-07T10:04:05.692Z,31.18
2022-08-07T10:04:57.671Z,32.09
2022-08-07T10:05:59.822Z,32.68
2022-08-07T10:06:56.947Z,32.91
2022-08-07T10:07:57.124Z,32.89
2022-08-07T10:08:56.627Z,31.20
2022-08-07T10:10:00.196Z,32.50
2022-08-07T10:11:17.255Z,31.41
2022-08-07T10:12:01.579Z,31.31
2022-08-07T10:12:57.546Z,31.90
2022-08-07T10:14:01.827Z,32.78
2022-08-07T10:14:56.554Z,32.98
2022-08-07T10:15:56.518Z,30.49
2022-08-07T10:16:56.541Z,31.02
2022-08-07T10:18:01.012Z,31.42
2022-08-07T10:18:57.518Z,31.62
2022-08-07T10:19:56.525Z,32.10
2022-08-07T10:20:56.481Z,31.23
2022-08-07T10:22:16.282Z,31.74
2022-08-07T10:22:57.459Z,30.73
2022-08-07T10:24:06.442Z,31.92
2022-08-07T10:24:57.594Z,30.73
2022-08-07T10:25:56.426Z,31.92
2022-08-07T10:26:56.434Z,30.53
2022-08-07T10:27:56.416Z,31.62
2022-08-07T10:28:56.396Z,30.96
2022-08-07T10:29:56.421Z,31.77
2022-08-07T10:30:56.380Z,32.78
2022-08-07T10:31:56.371Z,32.20
2022-08-07T10:32:59.582Z,32.57
2022-08-07T10:34:06.351Z,32.66
2022-08-07T10:34:57.340Z,32.36
2022-08-07T10:36:08.225Z,32.35
2022-08-07T10:36:58.328Z,33.83
2022-08-07T10:38:09.724Z,31.27
2022-08-07T10:38:57.320Z,33.37
2022-08-07T10:39:57.496Z,32.96
2022-08-07T10:40:57.336Z,31.47
2022-08-07T10:42:09.131Z,33.54
2022-08-07T10:42:57.265Z,32.23
2022-08-07T10:44:02.279Z,31.18
2022-08-07T10:44:57.246Z,32.18
2022-08-07T10:45:58.028Z,31.50
2022-08-07T10:46:56.244Z,32.89
2022-08-07T10:48:02.776Z,32.92
2022-08-07T10:48:57.206Z,33.22
2022-08-07T10:49:56.231Z,34.00
2022-08-07T10:50:56.185Z,33.98
2022-08-07T10:52:01.507Z,32.49
2022-08-07T10:52:57.175Z,33.09
2022-08-07T10:54:00.148Z,32.18
2022-08-07T10:55:02.059Z,31.90
2022-08-07T10:55:56.146Z,31.91
2022-08-07T10:56:56.127Z,33.30
2022-08-07T10:57:56.564Z,32.79
2022-08-07T10:58:59.933Z,32.48
2022-08-07T10:59:56.092Z,32.66
2022-08-07T11:00:56.641Z,31.18
2022-08-07T11:02:04.814Z,32.20
2022-08-07T11:02:56.102Z,33.18
2022-08-07T11:04:11.027Z,32.69
2022-08-07T11:04:58.082Z,32.41
2022-08-07T11:05:56.039Z,32.31
2022-08-07T11:06:56.027Z,32.31
2022-08-07T11:07:59.150Z,32.69
2022-08-07T11:08:56.021Z,31.90
2022-08-07T11:10:09.504Z,32.20
2022-08-07T11:11:00.020Z,31.99
2022-08-07T11:11:59.143Z,32.97
2022-08-07T11:13:02.163Z,30.89
2022-08-07T11:14:44.867Z,32.57
2022-08-07T11:15:00.939Z,31.60
2022-08-07T11:15:55.953Z,32.39
2022-08-07T11:17:01.376Z,33.09
2022-08-07T11:17:56.916Z,31.71
2022-08-07T11:18:56.918Z,32.72
2022-08-07T11:19:55.907Z,32.92
2022-08-07T11:20:55.928Z,33.22
2022-08-07T11:21:55.883Z,32.39
2022-08-07T11:22:55.912Z,32.97
2022-08-07T11:23:55.883Z,30.79
2022-08-07T11:24:55.855Z,32.48
2022-08-07T11:25:55.863Z,31.37
2022-08-07T11:26:56.864Z,30.26
2022-08-07T11:28:03.222Z,30.76
2022-08-07T11:28:55.916Z,32.05
2022-08-07T11:30:18.060Z,28.79
2022-08-07T11:30:56.804Z,29.80
2022-08-07T11:31:55.815Z,29.41
2022-08-07T11:32:55.797Z,31.20
2022-08-07T11:34:00.249Z,30.87
2022-08-07T11:34:55.766Z,32.46
2022-08-07T11:35:59.494Z,31.26
2022-08-07T11:36:56.323Z,31.54
2022-08-07T11:37:57.937Z,30.25
2022-08-07T11:38:56.709Z,30.46
2022-08-07T11:40:00.341Z,29.98
2022-08-07T11:40:56.691Z,30.96
2022-08-07T11:42:02.327Z,31.45
2022-08-07T11:42:55.683Z,31.47
2022-08-07T11:44:12.544Z,30.47
2022-08-07T11:44:57.931Z,32.86
2022-08-07T11:45:55.645Z,30.16
2022-08-07T11:46:55.641Z,30.86
2022-08-07T11:47:59.395Z,31.95
2022-08-07T11:49:50.316Z,31.75
2022-08-07T11:50:30.756Z,30.16
2022-08-07T11:50:57.930Z,30.36
2022-08-07T11:51:55.592Z,30.84
2022-08-07T11:52:55.578Z,30.55
2022-08-07T11:54:00.547Z,29.25
2022-08-07T11:54:56.560Z,29.68
2022-08-07T11:56:25.568Z,30.79
2022-08-07T11:56:56.230Z,31.09
2022-08-07T11:58:00.718Z,31.98
2022-08-07T11:58:56.531Z,31.37
2022-08-07T12:00:12.183Z,30.29
2022-08-07T12:01:02.126Z,30.29
2022-08-07T12:01:59.337Z,30.69
2022-08-07T12:02:55.524Z,31.37
2022-08-07T12:03:55.522Z,32.06
2022-08-07T12:04:55.468Z,30.86
2022-08-07T12:05:58.232Z,31.65
2022-08-07T12:07:00.622Z,30.36
2022-08-07T12:08:03.678Z,30.96
2022-08-07T12:08:57.075Z,30.97
2022-08-07T12:09:55.441Z,31.07
2022-08-07T12:11:08.247Z,31.37
2022-08-07T12:12:09.597Z,32.15
2022-08-07T12:12:56.417Z,31.63
2022-08-07T12:13:55.386Z,31.84
2022-08-07T12:15:00.309Z,30.93
2022-08-07T12:16:05.663Z,31.52
2022-08-07T12:16:56.365Z,30.41
2022-08-07T12:17:59.672Z,31.01
2022-08-07T12:18:56.375Z,30.71
2022-08-07T12:20:03.178Z,30.62
2022-08-07T12:20:56.315Z,30.43
2022-08-07T12:22:38.437Z,30.22
2022-08-07T12:22:58.769Z,30.62
2022-08-07T12:24:06.651Z,30.83
2022-08-07T12:25:02.310Z,30.94
2022-08-07T12:26:03.249Z,32.61
2022-08-07T12:26:56.282Z,30.43
2022-08-07T12:28:10.058Z,30.05
2022-08-07T12:28:56.268Z,30.46
2022-08-07T12:29:55.224Z,31.77
2022-08-07T12:30:55.223Z,31.26
2022-08-07T12:32:04.146Z,30.97
2022-08-07T12:32:56.207Z,32.26
2022-08-07T12:33:56.020Z,31.87
2022-08-07T12:35:21.074Z,32.08
2022-08-07T12:35:57.978Z,31.90
2022-08-07T12:36:55.178Z,31.99
2022-08-07T12:38:10.056Z,32.09
2022-08-07T12:38:57.686Z,31.10
2022-08-07T12:39:55.170Z,31.60
2022-08-07T12:40:55.166Z,31.68
2022-08-07T12:41:56.105Z,31.38
2022-08-07T12:42:57.367Z,31.98
2022-08-07T12:44:03.921Z,31.17
2022-08-07T12:44:56.106Z,31.88
2022-08-07T12:45:55.095Z,32.28
2022-08-07T12:46:55.077Z,31.98
2022-08-07T12:47:55.063Z,31.88
2022-08-07T12:48:55.212Z,31.27
2022-08-07T12:50:04.381Z,30.69
2022-08-07T12:50:57.059Z,32.06
2022-08-07T12:52:13.995Z,31.77